sensor_id;sensor_type;location;lat;lon;timestamp;P1;durP1;ratioP1;P2;durP2;ratioP2
65835;SDS011;52595;51.608;7.216;2023-08-20T00:00:58;10.02;;;7.32;;
65835;SDS011;52595;51.608;7.216;2023-08-20T00:03:26;10.40;;;7.40;;
65835;SDS011;52595;51.608;7.216;2023-08-20T00:05:52;12.07;;;6.88;;
65835;SDS011;52595;51.608;7.216;2023-08-20T00:08:18;11.77;;;7.03;;
65835;SDS011;52595;51.608;7.216;2023-08-20T00:10:43;12.68;;;7.05;;
65835;SDS011;52595;51.608;7.216;2023-08-20T00:13:09;11.85;;;7.38;;
65835;SDS011;52595;51.608;7.216;2023-08-20T00:15:34;8.85;;;6.75;;
65835;SDS011;52595;51.608;7.216;2023-08-20T00:18:00;10.95;;;6.88;;
65835;SDS011;52595;51.608;7.216;2023-08-20T00:20:28;10.50;;;6.55;;
65835;SDS011;52595;51.608;7.216;2023-08-20T00:22:54;10.77;;;6.07;;
65835;SDS011;52595;51.608;7.216;2023-08-20T00:25:20;9.63;;;7.35;;
65835;SDS011;52595;51.608;7.216;2023-08-20T00:27:45;10.85;;;6.97;;
65835;SDS011;52595;51.608;7.216;2023-08-20T00:30:11;11.23;;;7.40;;
65835;SDS011;52595;51.608;7.216;2023-08-20T00:32:37;11.77;;;7.70;;
65835;SDS011;52595;51.608;7.216;2023-08-20T00:38:06;12.35;;;7.50;;
65835;SDS011;52595;51.608;7.216;2023-08-20T00:40:31;9.48;;;7.22;;
65835;SDS011;52595;51.608;7.216;2023-08-20T00:42:57;12.68;;;7.45;;
65835;SDS011;52595;51.608;7.216;2023-08-20T00:45:23;12.32;;;7.20;;
65835;SDS011;52595;51.608;7.216;2023-08-20T00:47:49;11.32;;;7.15;;
65835;SDS011;52595;51.608;7.216;2023-08-20T00:50:15;11.30;;;7.30;;
65835;SDS011;52595;51.608;7.216;2023-08-20T00:52:41;13.02;;;7.65;;
65835;SDS011;52595;51.608;7.216;2023-08-20T00:55:08;12.68;;;7.40;;
65835;SDS011;52595;51.608;7.216;2023-08-20T00:57:35;12.45;;;7.90;;
65835;SDS011;52595;51.608;7.216;2023-08-20T01:00:02;14.57;;;8.35;;
65835;SDS011;52595;51.608;7.216;2023-08-20T01:02:32;13.40;;;8.73;;
65835;SDS011;52595;51.608;7.216;2023-08-20T01:04:58;16.58;;;9.50;;
65835;SDS011;52595;51.608;7.216;2023-08-20T01:07:27;15.98;;;9.27;;
65835;SDS011;52595;51.608;7.216;2023-08-20T01:12:24;11.57;;;8.10;;
65835;SDS011;52595;51.608;7.216;2023-08-20T01:14:50;12.90;;;8.48;;
65835;SDS011;52595;51.608;7.216;2023-08-20T01:17:15;13.18;;;8.10;;
65835;SDS011;52595;51.608;7.216;2023-08-20T01:19:40;13.40;;;8.60;;
65835;SDS011;52595;51.608;7.216;2023-08-20T01:28:04;16.90;;;9.45;;
65835;SDS011;52595;51.608;7.216;2023-08-20T01:30:39;17.70;;;10.18;;
65835;SDS011;52595;51.608;7.216;2023-08-20T01:33:04;15.13;;;10.38;;
65835;SDS011;52595;51.608;7.216;2023-08-20T01:35:32;15.25;;;10.15;;
65835;SDS011;52595;51.608;7.216;2023-08-20T01:37:57;17.83;;;10.48;;
65835;SDS011;52595;51.608;7.216;2023-08-20T01:40:23;17.95;;;10.70;;
65835;SDS011;52595;51.608;7.216;2023-08-20T01:42:48;15.68;;;10.70;;
65835;SDS011;52595;51.608;7.216;2023-08-20T01:45:13;20.20;;;12.40;;
65835;SDS011;52595;51.608;7.216;2023-08-20T01:47:39;20.75;;;12.93;;
65835;SDS011;52595;51.608;7.216;2023-08-20T01:50:04;21.48;;;13.63;;
65835;SDS011;52595;51.608;7.216;2023-08-20T01:52:30;21.27;;;13.75;;
65835;SDS011;52595;51.608;7.216;2023-08-20T01:54:55;23.52;;;12.73;;
65835;SDS011;52595;51.608;7.216;2023-08-20T01:57:21;24.25;;;13.68;;
65835;SDS011;52595;51.608;7.216;2023-08-20T01:59:47;21.48;;;13.98;;
65835;SDS011;52595;51.608;7.216;2023-08-20T02:02:13;21.98;;;13.88;;
65835;SDS011;52595;51.608;7.216;2023-08-20T02:04:38;24.00;;;13.05;;
65835;SDS011;52595;51.608;7.216;2023-08-20T02:07:04;23.58;;;13.60;;
65835;SDS011;52595;51.608;7.216;2023-08-20T02:09:29;22.63;;;14.75;;
65835;SDS011;52595;51.608;7.216;2023-08-20T02:11:54;32.55;;;18.55;;
65835;SDS011;52595;51.608;7.216;2023-08-20T02:14:20;33.55;;;19.02;;
65835;SDS011;52595;51.608;7.216;2023-08-20T02:16:48;33.55;;;19.63;;
65835;SDS011;52595;51.608;7.216;2023-08-20T02:19:13;33.38;;;19.88;;
65835;SDS011;52595;51.608;7.216;2023-08-20T02:21:42;36.15;;;20.08;;
65835;SDS011;52595;51.608;7.216;2023-08-20T02:24:07;40.97;;;22.75;;
65835;SDS011;52595;51.608;7.216;2023-08-20T02:26:33;44.33;;;23.45;;
65835;SDS011;52595;51.608;7.216;2023-08-20T02:28:58;47.10;;;24.08;;
65835;SDS011;52595;51.608;7.216;2023-08-20T02:31:23;47.33;;;24.00;;
65835;SDS011;52595;51.608;7.216;2023-08-20T02:33:49;48.75;;;25.25;;
65835;SDS011;52595;51.608;7.216;2023-08-20T02:36:14;48.78;;;25.63;;
65835;SDS011;52595;51.608;7.216;2023-08-20T02:38:40;45.75;;;24.35;;
65835;SDS011;52595;51.608;7.216;2023-08-20T02:41:05;44.58;;;25.00;;
65835;SDS011;52595;51.608;7.216;2023-08-20T02:43:30;47.10;;;25.42;;
65835;SDS011;52595;51.608;7.216;2023-08-20T02:45:56;47.92;;;25.00;;
65835;SDS011;52595;51.608;7.216;2023-08-20T02:48:22;46.83;;;24.05;;
65835;SDS011;52595;51.608;7.216;2023-08-20T02:50:52;44.63;;;24.73;;
65835;SDS011;52595;51.608;7.216;2023-08-20T02:53:20;46.33;;;23.77;;
65835;SDS011;52595;51.608;7.216;2023-08-20T02:55:47;43.70;;;24.25;;
65835;SDS011;52595;51.608;7.216;2023-08-20T02:58:12;42.70;;;24.13;;
65835;SDS011;52595;51.608;7.216;2023-08-20T03:00:38;42.58;;;22.92;;
65835;SDS011;52595;51.608;7.216;2023-08-20T03:03:03;46.58;;;23.55;;
65835;SDS011;52595;51.608;7.216;2023-08-20T03:05:32;40.55;;;22.48;;
65835;SDS011;52595;51.608;7.216;2023-08-20T03:07:58;42.70;;;22.10;;
65835;SDS011;52595;51.608;7.216;2023-08-20T03:10:23;45.00;;;23.40;;
65835;SDS011;52595;51.608;7.216;2023-08-20T03:12:49;40.95;;;22.65;;
65835;SDS011;52595;51.608;7.216;2023-08-20T03:15:14;45.25;;;24.02;;
65835;SDS011;52595;51.608;7.216;2023-08-20T03:17:40;45.25;;;23.90;;
65835;SDS011;52595;51.608;7.216;2023-08-20T03:20:05;51.47;;;25.02;;
65835;SDS011;52595;51.608;7.216;2023-08-20T03:22:32;48.00;;;24.23;;
65835;SDS011;52595;51.608;7.216;2023-08-20T03:24:57;52.47;;;24.45;;
65835;SDS011;52595;51.608;7.216;2023-08-20T03:27:23;54.47;;;25.85;;
65835;SDS011;52595;51.608;7.216;2023-08-20T03:29:48;49.40;;;24.98;;
65835;SDS011;52595;51.608;7.216;2023-08-20T03:32:13;47.50;;;25.17;;
65835;SDS011;52595;51.608;7.216;2023-08-20T03:34:39;50.00;;;25.08;;
65835;SDS011;52595;51.608;7.216;2023-08-20T03:37:05;61.17;;;26.65;;
65835;SDS011;52595;51.608;7.216;2023-08-20T03:39:30;48.55;;;24.98;;
65835;SDS011;52595;51.608;7.216;2023-08-20T03:41:56;50.65;;;24.35;;
65835;SDS011;52595;51.608;7.216;2023-08-20T03:44:22;44.30;;;23.10;;
65835;SDS011;52595;51.608;7.216;2023-08-20T03:46:48;46.25;;;23.25;;
65835;SDS011;52595;51.608;7.216;2023-08-20T03:49:13;48.33;;;24.08;;
65835;SDS011;52595;51.608;7.216;2023-08-20T03:51:38;47.08;;;24.23;;
65835;SDS011;52595;51.608;7.216;2023-08-20T03:54:04;63.70;;;27.10;;
65835;SDS011;52595;51.608;7.216;2023-08-20T03:56:29;56.13;;;25.42;;
65835;SDS011;52595;51.608;7.216;2023-08-20T03:58:55;60.95;;;28.75;;
65835;SDS011;52595;51.608;7.216;2023-08-20T04:01:20;63.78;;;27.50;;
65835;SDS011;52595;51.608;7.216;2023-08-20T04:03:46;67.10;;;28.92;;
65835;SDS011;52595;51.608;7.216;2023-08-20T04:06:13;65.70;;;30.00;;
65835;SDS011;52595;51.608;7.216;2023-08-20T04:08:39;57.47;;;27.80;;
65835;SDS011;52595;51.608;7.216;2023-08-20T04:11:07;63.65;;;28.38;;
65835;SDS011;52595;51.608;7.216;2023-08-20T04:13:33;67.13;;;29.92;;
65835;SDS011;52595;51.608;7.216;2023-08-20T04:15:58;73.68;;;29.70;;
65835;SDS011;52595;51.608;7.216;2023-08-20T04:18:24;87.03;;;32.05;;
65835;SDS011;52595;51.608;7.216;2023-08-20T04:20:51;84.13;;;31.52;;
65835;SDS011;52595;51.608;7.216;2023-08-20T04:23:17;74.70;;;30.20;;
65835;SDS011;52595;51.608;7.216;2023-08-20T04:25:43;97.63;;;33.47;;
65835;SDS011;52595;51.608;7.216;2023-08-20T04:28:10;103.90;;;33.85;;
65835;SDS011;52595;51.608;7.216;2023-08-20T04:30:35;116.75;;;35.33;;
65835;SDS011;52595;51.608;7.216;2023-08-20T04:33:01;115.53;;;37.08;;
65835;SDS011;52595;51.608;7.216;2023-08-20T04:35:26;123.07;;;36.85;;
65835;SDS011;52595;51.608;7.216;2023-08-20T04:37:52;140.20;;;38.08;;
65835;SDS011;52595;51.608;7.216;2023-08-20T04:40:17;153.10;;;38.58;;
65835;SDS011;52595;51.608;7.216;2023-08-20T04:42:43;166.23;;;38.67;;
65835;SDS011;52595;51.608;7.216;2023-08-20T04:45:08;161.07;;;39.17;;
65835;SDS011;52595;51.608;7.216;2023-08-20T04:47:35;217.80;;;42.00;;
65835;SDS011;52595;51.608;7.216;2023-08-20T04:50:00;190.23;;;41.50;;
65835;SDS011;52595;51.608;7.216;2023-08-20T04:52:26;205.68;;;39.85;;
65835;SDS011;52595;51.608;7.216;2023-08-20T04:54:51;225.57;;;42.35;;
65835;SDS011;52595;51.608;7.216;2023-08-20T04:57:17;201.85;;;39.20;;
65835;SDS011;52595;51.608;7.216;2023-08-20T04:59:42;251.93;;;39.83;;
65835;SDS011;52595;51.608;7.216;2023-08-20T05:02:11;183.57;;;40.33;;
65835;SDS011;52595;51.608;7.216;2023-08-20T05:04:37;173.48;;;39.22;;
65835;SDS011;52595;51.608;7.216;2023-08-20T05:07:03;161.23;;;38.53;;
65835;SDS011;52595;51.608;7.216;2023-08-20T05:09:29;300.15;;;41.78;;
65835;SDS011;52595;51.608;7.216;2023-08-20T05:11:54;292.52;;;40.50;;
65835;SDS011;52595;51.608;7.216;2023-08-20T05:14:20;298.08;;;39.08;;
65835;SDS011;52595;51.608;7.216;2023-08-20T05:16:45;254.55;;;38.67;;
65835;SDS011;52595;51.608;7.216;2023-08-20T05:19:10;161.32;;;37.10;;
65835;SDS011;52595;51.608;7.216;2023-08-20T05:21:36;235.88;;;39.45;;
65835;SDS011;52595;51.608;7.216;2023-08-20T05:24:01;268.50;;;41.13;;
65835;SDS011;52595;51.608;7.216;2023-08-20T05:26:27;152.48;;;36.53;;
65835;SDS011;52595;51.608;7.216;2023-08-20T05:28:52;168.48;;;37.88;;
65835;SDS011;52595;51.608;7.216;2023-08-20T05:31:17;119.25;;;37.05;;
65835;SDS011;52595;51.608;7.216;2023-08-20T05:33:43;123.60;;;37.63;;
65835;SDS011;52595;51.608;7.216;2023-08-20T05:36:08;159.55;;;37.28;;
65835;SDS011;52595;51.608;7.216;2023-08-20T05:38:34;118.15;;;34.70;;
65835;SDS011;52595;51.608;7.216;2023-08-20T05:40:59;180.05;;;38.45;;
65835;SDS011;52595;51.608;7.216;2023-08-20T05:43:25;149.27;;;37.50;;
65835;SDS011;52595;51.608;7.216;2023-08-20T05:45:50;137.52;;;38.50;;
65835;SDS011;52595;51.608;7.216;2023-08-20T05:48:15;244.88;;;42.20;;
65835;SDS011;52595;51.608;7.216;2023-08-20T05:50:41;152.00;;;38.90;;
65835;SDS011;52595;51.608;7.216;2023-08-20T05:53:09;157.32;;;40.40;;
65835;SDS011;52595;51.608;7.216;2023-08-20T05:55:37;140.30;;;40.92;;
65835;SDS011;52595;51.608;7.216;2023-08-20T05:58:04;170.32;;;39.15;;
65835;SDS011;52595;51.608;7.216;2023-08-20T06:00:29;189.48;;;39.90;;
65835;SDS011;52595;51.608;7.216;2023-08-20T06:02:55;122.25;;;37.10;;
65835;SDS011;52595;51.608;7.216;2023-08-20T06:05:20;174.77;;;37.85;;
65835;SDS011;52595;51.608;7.216;2023-08-20T06:07:45;206.85;;;38.83;;
65835;SDS011;52595;51.608;7.216;2023-08-20T06:10:11;122.22;;;38.10;;
65835;SDS011;52595;51.608;7.216;2023-08-20T06:12:36;119.25;;;36.22;;
65835;SDS011;52595;51.608;7.216;2023-08-20T06:15:02;104.15;;;35.17;;
65835;SDS011;52595;51.608;7.216;2023-08-20T06:17:28;108.78;;;34.92;;
65835;SDS011;52595;51.608;7.216;2023-08-20T06:19:53;102.80;;;35.08;;
65835;SDS011;52595;51.608;7.216;2023-08-20T06:22:18;102.97;;;35.40;;
65835;SDS011;52595;51.608;7.216;2023-08-20T06:24:44;128.32;;;35.30;;
65835;SDS011;52595;51.608;7.216;2023-08-20T06:27:10;102.97;;;34.47;;
65835;SDS011;52595;51.608;7.216;2023-08-20T06:29:35;96.88;;;33.67;;
65835;SDS011;52595;51.608;7.216;2023-08-20T06:32:01;83.28;;;32.72;;
65835;SDS011;52595;51.608;7.216;2023-08-20T06:34:26;71.65;;;31.90;;
65835;SDS011;52595;51.608;7.216;2023-08-20T06:36:52;74.32;;;32.88;;
65835;SDS011;52595;51.608;7.216;2023-08-20T06:39:18;76.88;;;33.10;;
65835;SDS011;52595;51.608;7.216;2023-08-20T06:41:44;78.88;;;33.10;;
65835;SDS011;52595;51.608;7.216;2023-08-20T06:44:10;86.72;;;33.83;;
65835;SDS011;52595;51.608;7.216;2023-08-20T06:46:36;70.72;;;32.65;;
65835;SDS011;52595;51.608;7.216;2023-08-20T06:49:01;79.80;;;33.75;;
65835;SDS011;52595;51.608;7.216;2023-08-20T06:51:27;74.45;;;33.10;;
65835;SDS011;52595;51.608;7.216;2023-08-20T06:53:53;91.25;;;35.35;;
65835;SDS011;52595;51.608;7.216;2023-08-20T06:56:19;81.28;;;35.35;;
65835;SDS011;52595;51.608;7.216;2023-08-20T06:58:45;76.32;;;32.35;;
65835;SDS011;52595;51.608;7.216;2023-08-20T07:01:11;70.90;;;32.85;;
65835;SDS011;52595;51.608;7.216;2023-08-20T07:03:37;70.95;;;33.00;;
65835;SDS011;52595;51.608;7.216;2023-08-20T07:06:07;73.97;;;33.85;;
65835;SDS011;52595;51.608;7.216;2023-08-20T07:08:39;68.60;;;33.83;;
65835;SDS011;52595;51.608;7.216;2023-08-20T07:11:05;64.93;;;31.50;;
65835;SDS011;52595;51.608;7.216;2023-08-20T07:13:31;58.22;;;30.15;;
65835;SDS011;52595;51.608;7.216;2023-08-20T07:15:56;53.28;;;28.83;;
65835;SDS011;52595;51.608;7.216;2023-08-20T07:18:22;58.42;;;31.67;;
65835;SDS011;52595;51.608;7.216;2023-08-20T07:20:47;52.08;;;29.90;;
65835;SDS011;52595;51.608;7.216;2023-08-20T07:23:13;52.95;;;29.52;;
65835;SDS011;52595;51.608;7.216;2023-08-20T07:25:39;51.90;;;29.73;;
65835;SDS011;52595;51.608;7.216;2023-08-20T07:28:05;53.40;;;29.83;;
65835;SDS011;52595;51.608;7.216;2023-08-20T07:30:31;48.20;;;28.17;;
65835;SDS011;52595;51.608;7.216;2023-08-20T07:32:57;48.40;;;28.05;;
65835;SDS011;52595;51.608;7.216;2023-08-20T07:35:23;46.58;;;27.45;;
65835;SDS011;52595;51.608;7.216;2023-08-20T07:37:48;58.08;;;30.92;;
65835;SDS011;52595;51.608;7.216;2023-08-20T07:40:14;52.78;;;29.67;;
65835;SDS011;52595;51.608;7.216;2023-08-20T07:42:40;50.33;;;30.38;;
65835;SDS011;52595;51.608;7.216;2023-08-20T07:45:06;49.88;;;29.77;;
65835;SDS011;52595;51.608;7.216;2023-08-20T07:47:32;50.45;;;30.13;;
65835;SDS011;52595;51.608;7.216;2023-08-20T07:49:58;50.88;;;30.00;;
65835;SDS011;52595;51.608;7.216;2023-08-20T07:52:23;46.58;;;28.75;;
65835;SDS011;52595;51.608;7.216;2023-08-20T07:54:49;43.25;;;28.58;;
65835;SDS011;52595;51.608;7.216;2023-08-20T07:57:14;48.90;;;28.98;;
65835;SDS011;52595;51.608;7.216;2023-08-20T07:59:40;44.92;;;28.05;;
65835;SDS011;52595;51.608;7.216;2023-08-20T08:02:05;51.42;;;29.25;;
65835;SDS011;52595;51.608;7.216;2023-08-20T08:04:30;47.63;;;28.80;;
65835;SDS011;52595;51.608;7.216;2023-08-20T08:06:56;43.70;;;28.83;;
65835;SDS011;52595;51.608;7.216;2023-08-20T08:09:26;44.67;;;29.20;;
65835;SDS011;52595;51.608;7.216;2023-08-20T08:14:17;51.40;;;29.98;;
65835;SDS011;52595;51.608;7.216;2023-08-20T08:16:44;48.58;;;29.80;;
65835;SDS011;52595;51.608;7.216;2023-08-20T08:19:10;48.72;;;29.45;;
65835;SDS011;52595;51.608;7.216;2023-08-20T08:21:35;48.88;;;30.13;;
65835;SDS011;52595;51.608;7.216;2023-08-20T08:24:01;49.78;;;29.35;;
65835;SDS011;52595;51.608;7.216;2023-08-20T08:26:27;45.42;;;28.75;;
65835;SDS011;52595;51.608;7.216;2023-08-20T08:28:52;48.60;;;30.05;;
65835;SDS011;52595;51.608;7.216;2023-08-20T08:31:18;47.55;;;29.38;;
65835;SDS011;52595;51.608;7.216;2023-08-20T08:33:43;48.78;;;29.83;;
65835;SDS011;52595;51.608;7.216;2023-08-20T08:36:09;44.90;;;27.95;;
65835;SDS011;52595;51.608;7.216;2023-08-20T08:38:34;48.22;;;30.38;;
65835;SDS011;52595;51.608;7.216;2023-08-20T08:41:01;47.38;;;29.73;;
65835;SDS011;52595;51.608;7.216;2023-08-20T08:43:28;49.47;;;30.08;;
65835;SDS011;52595;51.608;7.216;2023-08-20T08:45:56;45.50;;;27.85;;
65835;SDS011;52595;51.608;7.216;2023-08-20T08:48:22;42.97;;;26.42;;
65835;SDS011;52595;51.608;7.216;2023-08-20T08:50:56;42.30;;;27.42;;
65835;SDS011;52595;51.608;7.216;2023-08-20T08:53:27;38.60;;;24.30;;
65835;SDS011;52595;51.608;7.216;2023-08-20T08:55:57;41.45;;;25.48;;
65835;SDS011;52595;51.608;7.216;2023-08-20T08:59:00;39.30;;;26.63;;
65835;SDS011;52595;51.608;7.216;2023-08-20T09:01:29;37.67;;;25.00;;
65835;SDS011;52595;51.608;7.216;2023-08-20T09:06:24;31.65;;;22.02;;
65835;SDS011;52595;51.608;7.216;2023-08-20T09:08:50;33.78;;;21.90;;
65835;SDS011;52595;51.608;7.216;2023-08-20T09:11:34;25.65;;;17.83;;
65835;SDS011;52595;51.608;7.216;2023-08-20T09:14:02;24.23;;;16.67;;
65835;SDS011;52595;51.608;7.216;2023-08-20T09:16:29;25.42;;;16.90;;
65835;SDS011;52595;51.608;7.216;2023-08-20T09:18:57;23.80;;;17.40;;
65835;SDS011;52595;51.608;7.216;2023-08-20T09:21:26;19.15;;;13.25;;
65835;SDS011;52595;51.608;7.216;2023-08-20T09:23:56;21.55;;;15.23;;
65835;SDS011;52595;51.608;7.216;2023-08-20T09:26:25;17.67;;;12.77;;
65835;SDS011;52595;51.608;7.216;2023-08-20T09:28:50;15.20;;;11.15;;
65835;SDS011;52595;51.608;7.216;2023-08-20T09:31:19;14.80;;;11.25;;
65835;SDS011;52595;51.608;7.216;2023-08-20T09:33:48;14.20;;;10.32;;
65835;SDS011;52595;51.608;7.216;2023-08-20T09:36:17;9.55;;;6.45;;
65835;SDS011;52595;51.608;7.216;2023-08-20T09:38:43;9.27;;;5.97;;
65835;SDS011;52595;51.608;7.216;2023-08-20T09:41:09;11.77;;;7.93;;
65835;SDS011;52595;51.608;7.216;2023-08-20T09:44:08;11.43;;;8.20;;
65835;SDS011;52595;51.608;7.216;2023-08-20T09:46:38;13.43;;;8.38;;
65835;SDS011;52595;51.608;7.216;2023-08-20T09:49:04;10.60;;;8.38;;
65835;SDS011;52595;51.608;7.216;2023-08-20T09:51:32;13.50;;;8.48;;
65835;SDS011;52595;51.608;7.216;2023-08-20T09:56:58;15.25;;;9.23;;
65835;SDS011;52595;51.608;7.216;2023-08-20T09:59:26;11.70;;;8.50;;
65835;SDS011;52595;51.608;7.216;2023-08-20T10:01:52;13.30;;;9.27;;
65835;SDS011;52595;51.608;7.216;2023-08-20T10:04:19;13.82;;;9.45;;
65835;SDS011;52595;51.608;7.216;2023-08-20T10:06:46;12.93;;;9.35;;
65835;SDS011;52595;51.608;7.216;2023-08-20T10:09:12;14.27;;;9.15;;
65835;SDS011;52595;51.608;7.216;2023-08-20T10:11:39;9.50;;;7.90;;
65835;SDS011;52595;51.608;7.216;2023-08-20T10:14:08;14.20;;;9.77;;
65835;SDS011;52595;51.608;7.216;2023-08-20T10:16:33;11.40;;;9.18;;
65835;SDS011;52595;51.608;7.216;2023-08-20T10:19:03;18.02;;;13.13;;
65835;SDS011;52595;51.608;7.216;2023-08-20T10:21:29;17.85;;;12.70;;
65835;SDS011;52595;51.608;7.216;2023-08-20T10:23:54;18.27;;;12.63;;
65835;SDS011;52595;51.608;7.216;2023-08-20T10:26:20;20.35;;;12.60;;
65835;SDS011;52595;51.608;7.216;2023-08-20T10:28:47;16.40;;;11.95;;
65835;SDS011;52595;51.608;7.216;2023-08-20T10:31:12;18.50;;;12.98;;
65835;SDS011;52595;51.608;7.216;2023-08-20T10:36:16;16.48;;;12.70;;
65835;SDS011;52595;51.608;7.216;2023-08-20T10:38:46;18.33;;;12.43;;
65835;SDS011;52595;51.608;7.216;2023-08-20T10:41:12;17.88;;;13.15;;
65835;SDS011;52595;51.608;7.216;2023-08-20T10:43:39;18.25;;;13.40;;
65835;SDS011;52595;51.608;7.216;2023-08-20T10:48:40;17.90;;;13.23;;
65835;SDS011;52595;51.608;7.216;2023-08-20T10:51:12;18.27;;;13.27;;
65835;SDS011;52595;51.608;7.216;2023-08-20T10:53:40;16.35;;;13.32;;
65835;SDS011;52595;51.608;7.216;2023-08-20T10:56:10;18.00;;;12.68;;
65835;SDS011;52595;51.608;7.216;2023-08-20T10:58:40;17.80;;;14.77;;
65835;SDS011;52595;51.608;7.216;2023-08-20T11:03:43;16.73;;;13.32;;
65835;SDS011;52595;51.608;7.216;2023-08-20T11:06:09;16.08;;;12.90;;
65835;SDS011;52595;51.608;7.216;2023-08-20T11:08:36;18.40;;;13.75;;
65835;SDS011;52595;51.608;7.216;2023-08-20T11:11:02;15.18;;;11.70;;
65835;SDS011;52595;51.608;7.216;2023-08-20T11:13:28;17.63;;;13.40;;
65835;SDS011;52595;51.608;7.216;2023-08-20T11:15:54;15.98;;;11.77;;
65835;SDS011;52595;51.608;7.216;2023-08-20T11:18:20;18.50;;;14.43;;
65835;SDS011;52595;51.608;7.216;2023-08-20T11:20:45;17.77;;;15.02;;
65835;SDS011;52595;51.608;7.216;2023-08-20T11:23:14;18.85;;;15.32;;
65835;SDS011;52595;51.608;7.216;2023-08-20T11:25:42;19.15;;;15.15;;
65835;SDS011;52595;51.608;7.216;2023-08-20T11:28:08;17.88;;;14.40;;
65835;SDS011;52595;51.608;7.216;2023-08-20T11:30:33;16.02;;;13.95;;
65835;SDS011;52595;51.608;7.216;2023-08-20T11:32:59;16.50;;;14.00;;
65835;SDS011;52595;51.608;7.216;2023-08-20T11:35:25;14.13;;;11.48;;
65835;SDS011;52595;51.608;7.216;2023-08-20T11:37:51;13.88;;;11.68;;
65835;SDS011;52595;51.608;7.216;2023-08-20T11:40:19;12.05;;;10.57;;
65835;SDS011;52595;51.608;7.216;2023-08-20T11:42:46;11.38;;;10.02;;
65835;SDS011;52595;51.608;7.216;2023-08-20T11:45:11;14.85;;;12.05;;
65835;SDS011;52595;51.608;7.216;2023-08-20T11:47:40;12.35;;;10.82;;
65835;SDS011;52595;51.608;7.216;2023-08-20T11:50:07;12.00;;;9.63;;
65835;SDS011;52595;51.608;7.216;2023-08-20T11:52:34;10.85;;;8.93;;
65835;SDS011;52595;51.608;7.216;2023-08-20T11:55:00;11.25;;;9.73;;
65835;SDS011;52595;51.608;7.216;2023-08-20T11:57:27;9.85;;;8.85;;
65835;SDS011;52595;51.608;7.216;2023-08-20T11:59:53;9.75;;;8.70;;
65835;SDS011;52595;51.608;7.216;2023-08-20T12:02:25;9.20;;;8.20;;
65835;SDS011;52595;51.608;7.216;2023-08-20T12:04:52;9.27;;;7.22;;
65835;SDS011;52595;51.608;7.216;2023-08-20T12:07:24;8.40;;;6.90;;
65835;SDS011;52595;51.608;7.216;2023-08-20T12:09:52;10.77;;;7.60;;
65835;SDS011;52595;51.608;7.216;2023-08-20T12:12:19;8.85;;;7.50;;
65835;SDS011;52595;51.608;7.216;2023-08-20T12:14:47;10.73;;;8.03;;
65835;SDS011;52595;51.608;7.216;2023-08-20T12:17:20;9.32;;;7.85;;
65835;SDS011;52595;51.608;7.216;2023-08-20T12:19:46;9.77;;;8.20;;
65835;SDS011;52595;51.608;7.216;2023-08-20T12:22:11;9.43;;;7.65;;
65835;SDS011;52595;51.608;7.216;2023-08-20T12:24:37;10.82;;;8.55;;
65835;SDS011;52595;51.608;7.216;2023-08-20T12:27:03;10.38;;;8.40;;
65835;SDS011;52595;51.608;7.216;2023-08-20T12:29:29;11.40;;;9.40;;
65835;SDS011;52595;51.608;7.216;2023-08-20T12:31:54;10.48;;;8.93;;
65835;SDS011;52595;51.608;7.216;2023-08-20T12:34:23;10.52;;;9.20;;
65835;SDS011;52595;51.608;7.216;2023-08-20T12:36:50;10.27;;;9.05;;
65835;SDS011;52595;51.608;7.216;2023-08-20T12:39:15;10.05;;;8.30;;
65835;SDS011;52595;51.608;7.216;2023-08-20T12:41:41;8.93;;;7.70;;
65835;SDS011;52595;51.608;7.216;2023-08-20T12:44:07;10.90;;;7.72;;
65835;SDS011;52595;51.608;7.216;2023-08-20T12:46:35;10.90;;;7.38;;
65835;SDS011;52595;51.608;7.216;2023-08-20T12:49:00;12.50;;;7.38;;
65835;SDS011;52595;51.608;7.216;2023-08-20T12:51:26;11.20;;;7.50;;
65835;SDS011;52595;51.608;7.216;2023-08-20T12:53:52;10.23;;;7.03;;
65835;SDS011;52595;51.608;7.216;2023-08-20T12:56:17;7.93;;;6.93;;
65835;SDS011;52595;51.608;7.216;2023-08-20T12:58:43;6.97;;;6.28;;
65835;SDS011;52595;51.608;7.216;2023-08-20T13:01:09;8.20;;;7.20;;
65835;SDS011;52595;51.608;7.216;2023-08-20T13:03:34;8.05;;;6.45;;
65835;SDS011;52595;51.608;7.216;2023-08-20T13:06:00;7.85;;;5.78;;
65835;SDS011;52595;51.608;7.216;2023-08-20T13:08:26;8.52;;;6.00;;
65835;SDS011;52595;51.608;7.216;2023-08-20T13:10:55;6.72;;;5.50;;
65835;SDS011;52595;51.608;7.216;2023-08-20T13:15:48;6.45;;;5.70;;
65835;SDS011;52595;51.608;7.216;2023-08-20T13:18:14;9.00;;;5.85;;
65835;SDS011;52595;51.608;7.216;2023-08-20T13:20:40;7.20;;;5.63;;
65835;SDS011;52595;51.608;7.216;2023-08-20T13:23:07;8.07;;;6.20;;
65835;SDS011;52595;51.608;7.216;2023-08-20T13:25:32;7.40;;;6.00;;
65835;SDS011;52595;51.608;7.216;2023-08-20T13:27:57;9.88;;;6.90;;
65835;SDS011;52595;51.608;7.216;2023-08-20T13:30:23;6.93;;;4.70;;
65835;SDS011;52595;51.608;7.216;2023-08-20T13:32:49;9.75;;;3.80;;
65835;SDS011;52595;51.608;7.216;2023-08-20T13:35:14;6.20;;;2.92;;
65835;SDS011;52595;51.608;7.216;2023-08-20T13:37:40;6.32;;;3.13;;
65835;SDS011;52595;51.608;7.216;2023-08-20T13:40:05;5.20;;;2.85;;
65835;SDS011;52595;51.608;7.216;2023-08-20T13:42:34;6.20;;;3.08;;
65835;SDS011;52595;51.608;7.216;2023-08-20T13:44:59;5.18;;;2.65;;
65835;SDS011;52595;51.608;7.216;2023-08-20T13:47:25;6.40;;;2.80;;
65835;SDS011;52595;51.608;7.216;2023-08-20T13:49:50;8.20;;;3.33;;
65835;SDS011;52595;51.608;7.216;2023-08-20T13:52:15;4.90;;;3.10;;
65835;SDS011;52595;51.608;7.216;2023-08-20T13:54:41;6.20;;;3.00;;
65835;SDS011;52595;51.608;7.216;2023-08-20T13:57:06;5.80;;;2.60;;
65835;SDS011;52595;51.608;7.216;2023-08-20T13:59:32;5.85;;;2.53;;
65835;SDS011;52595;51.608;7.216;2023-08-20T14:01:58;4.90;;;2.90;;
65835;SDS011;52595;51.608;7.216;2023-08-20T14:04:23;6.13;;;2.90;;
65835;SDS011;52595;51.608;7.216;2023-08-20T14:06:49;5.38;;;2.65;;
65835;SDS011;52595;51.608;7.216;2023-08-20T14:09:14;5.57;;;2.70;;
65835;SDS011;52595;51.608;7.216;2023-08-20T14:11:42;5.30;;;2.60;;
65835;SDS011;52595;51.608;7.216;2023-08-20T14:14:07;5.20;;;2.67;;
65835;SDS011;52595;51.608;7.216;2023-08-20T14:16:33;6.28;;;2.60;;
65835;SDS011;52595;51.608;7.216;2023-08-20T14:18:58;5.25;;;2.47;;
65835;SDS011;52595;51.608;7.216;2023-08-20T14:21:23;6.03;;;3.33;;
65835;SDS011;52595;51.608;7.216;2023-08-20T14:23:49;6.93;;;3.03;;
65835;SDS011;52595;51.608;7.216;2023-08-20T14:26:14;6.75;;;2.70;;
65835;SDS011;52595;51.608;7.216;2023-08-20T14:28:40;4.90;;;3.00;;
65835;SDS011;52595;51.608;7.216;2023-08-20T14:31:08;5.78;;;2.80;;
65835;SDS011;52595;51.608;7.216;2023-08-20T14:33:33;6.20;;;3.00;;
65835;SDS011;52595;51.608;7.216;2023-08-20T14:35:59;5.60;;;2.90;;
65835;SDS011;52595;51.608;7.216;2023-08-20T14:38:24;5.45;;;3.03;;
65835;SDS011;52595;51.608;7.216;2023-08-20T14:40:50;5.32;;;2.65;;
65835;SDS011;52595;51.608;7.216;2023-08-20T14:43:16;5.35;;;2.40;;
65835;SDS011;52595;51.608;7.216;2023-08-20T14:45:41;6.90;;;3.00;;
65835;SDS011;52595;51.608;7.216;2023-08-20T14:48:06;4.82;;;3.22;;
65835;SDS011;52595;51.608;7.216;2023-08-20T14:50:32;5.35;;;3.30;;